White Bluff, TN (37187)

7:07 AM CST on January 28, 2015 (GMT -0600)
White Bluff | Change Station
CLOSE
Current Station
Personal Weather Station
Location: White Bluff, TN
Elevation: 823 ft
Nearby Weather Stations

Elev 823 ft 36.11 °N, 87.21 °W | Updated 9 seconds ago

Overcast
Overcast
29.8 °F
Feels Like 30 °F
N
0.0
Wind Variable Wind from North
Gusts 0.0 mph

Today
High -- | Low -- °F
--% Chance of Precip.
Yesterday
High -- | Low -- °F
Precip. -- in
6:52 AM 5:11 PM
Waxing Gibbous, 64% visible
Pressure 30.35 in
Visibility 10.0 miles
Clouds Few 2000 ft
Scattered Clouds 20000 ft
Windchill 30 °F
Dew Point 25 °F
Humidity 81%
Rainfall 0.00 in
Snow Depth Not available.
UV 0 out of 12
Pollen .30 out of 12
Air Quality Not available.
Flu Activity Not available.
METAR KBNA 281253Z 08008KT 10SM FEW020 SCT200 M01/M05 A3033 RMK AO2 SLP275 T10061050

More Conditions Fewer Conditions

Pressure 30.35 in
Visibility 10.0 miles
Clouds Few 2000 ft
Scattered Clouds 20000 ft
Windchill 30 °F
Dew Point 25 °F
Humidity 81%
Rainfall 0.00 in
Snow Depth Not available.
UV 0 out of 12
Pollen .30 out of 12
Air Quality Not available.
Flu Activity Not available.
METAR KBNA 281253Z 08008KT 10SM FEW020 SCT200 M01/M05 A3033 RMK AO2 SLP275 T10061050

More Conditions Fewer Conditions

10-Day Weather Forecast

Almanac

Astronomy

Jan. 28, 2015 Rise Set
Actual Time
Civil Twilight
Nautical Twilight
Astronomical Twilight
Moon
Length of Visible Light
Length of Day
Tomorrow will be .
, % of the Moon is Illuminated

Today's Extremes

State Highs State Lows

Community

WunderPhotos

Upload Photos

1,791,134 photos uploaded!

WunderBlogs® & News

Nearby

Air Quality

  Air Quality AQ Index Pollutant
Not available.

Snow Depth

Station Depth Elevation

Earthquake Activity

City Distance Mag. Time & Date
Minimum magnitude displayed is 2.5.

Coastal Water Temperatures

Place Temperature

Nearby Weather Stations